GCHI/VDE METAR and TAF weather

Enter ICAO airport designator
Station Type Date Time Source
GCHI METAR 2020/09/21 06:30 UTC NOAA

GCHI 210630Z 36011KT 9999 SCT022 23/20 Q1017


Station Type Date Time Source
GCHI Decoded METAR 2020/09/21 06:30 UTC NOAA

Hierro / Aeropuerto, Spain (GCHI) 27-49N 017-53W 32M
Sep 21, 2020 - 02:30 AM EDT / 2020.09.21 0630 UTC
Wind: from the N (360 degrees) at 13 MPH (11 KT):0
Visibility: greater than 7 mile(s):0
Sky conditions: partly cloudy
Temperature: 73 F (23 C)
Dew Point: 68 F (20 C)
Relative Humidity: 83%
Pressure (altimeter): 30.03 in. Hg (1017 hPa)
ob: GCHI 210630Z 36011KT 9999 SCT022 23/20 Q1017
cycle: 6

Station Type Date Time Source
GCHI TAF 2020/09/21 03:00 UTC NOAA

TAF GCHI 210200Z 2103/2203 36012KT 9999 SCT015 TX27/2114Z TN23/2106Z
TEMPO 2103/2106 BKN014

Example: see airport list